• Join FlightAware (Why Join?)
  • Login
  • US Flag 
10:32PM EDT


 

Airport Tracker/Info


-or-


 

Live Flight TrackerFlight Track Log ✈ VH-FJP ✈ 10-Jul-2013 ✈ YABA / ALH - YPJT / JAD

Flight Track Log - Related Links

Times and Time Zones

All times are in EDT time to prevent confusion due to time zone crossing. See the VH-FJP flight status page for this flight to view local times or setup timezone preferences in your user account.

Time Position Orientation Groundspeed Altitude Reporting Facility
EDT Latitude Longitude Course Direction KTS MPH feet Rate Location/Type
06:03AM -34.9114 117.7333 303° West 34,000  Level Aus ATC (Calculated)
06:04AM -34.9114 117.7333 303° West 34,000 -1,680 Level Aus ATC (Calculated)
06:04AM -34.9114 117.7333 303° West 34,000 -1,860 Level Aus ATC (Calculated)
06:05AM -34.9114 117.7333 303° West 34,000 -1,920 Level Aus ATC (Calculated)
06:06AM -34.8728 117.6569 303° West 34,000 -2,220 Level Aus ATC (Calculated)
06:07AM -34.8824 117.6759 302° West  Level FlightAware Approximate
06:08AM -34.8117 117.5362 302° West  Level FlightAware Approximate
06:09AM -34.7686 117.4512 302° West  Level FlightAware Approximate
06:10AM -34.7253 117.3663 302° West  Level FlightAware Approximate
06:10AM -34.6946 117.3271 302° West 253 291 23,000  Level Aus ATC (RADAR)
06:10AM -34.6732 117.2823 300° West 260 299 24,100 1,920 Climbing Aus ATC (RADAR)
06:11AM -34.6540 117.2438 301° West 266 306 25,100 1,920 Climbing Aus ATC (RADAR)
06:12AM -34.6241 117.1871 303° West 266 306 26,500 1,800 Climbing Aus ATC (RADAR)
06:12AM -34.6009 117.1402 301° West 273 314 27,500 1,680 Climbing Aus ATC (RADAR)
06:13AM -34.5776 117.0936 301° West 276 318 28,500 1,620 Climbing Aus ATC (RADAR)
06:13AM -34.5531 117.0463 302° West 282 325 29,400 1,620 Climbing Aus ATC (RADAR)
06:14AM -34.5288 116.9998 302° West 280 322 30,400 1,500 Climbing Aus ATC (RADAR)
06:15AM -34.5045 116.9497 300° West 288 331 31,200 1,500 Climbing Aus ATC (RADAR)
06:15AM -34.4806 116.9003 300° West 289 333 32,200 1,620 Climbing Aus ATC (RADAR)
06:16AM -34.4565 116.8546 303° West 279 321 33,100 1,320 Climbing Aus ATC (RADAR)
06:17AM -34.4258 116.7939 301° West 276 318 34,000 660 Climbing Aus ATC (RADAR)
06:17AM -34.4002 116.7462 303° West 283 326 34,000  Level Aus ATC (RADAR)
06:18AM -34.3733 116.6951 303° West 299 344 34,000  Level Aus ATC (RADAR)
06:18AM -34.3424 116.6306 300° West 320 368 34,000  Level Aus ATC (RADAR)
06:19AM -34.2950 116.5414 303° West 311 358 34,000  Level Aus ATC (RADAR)
06:20AM -34.2593 116.4734 302° West 310 357 34,100 60 Climbing Aus ATC (RADAR)
06:21AM -34.2315 116.4188 302° West 316 364 34,100  Level Aus ATC (RADAR)
06:21AM -34.2077 116.3743 303° West 311 358 34,100  Level Aus ATC (RADAR)
06:22AM -34.1644 116.2881 301° West 320 368 34,100  Level Aus ATC (RADAR)
06:23AM -34.1365 116.2386 304° West 306 352 34,100  Level Aus ATC (RADAR)
06:23AM -34.1011 116.1678 301° West 314 361 34,100  Level Aus ATC (RADAR)
06:24AM -34.0539 116.0791 303° West 306 352 34,100  Level Aus ATC (RADAR)
06:25AM -34.0191 116.0125 302° West 307 353 34,100  Level Aus ATC (RADAR)
06:26AM -33.9963 115.9675 302° West 309 356 34,100  Level Aus ATC (RADAR)
06:26AM -33.9693 115.9173 303° West 300 345 34,100  Level Aus ATC (RADAR)
06:27AM -33.9391 115.8598 302° West 298 343 34,100  Level Aus ATC (RADAR)
06:28AM -33.8938 115.7756 303° West 292 336 34,100  Level Aus ATC (RADAR)
06:29AM -33.8602 115.7125 303° West 292 336 34,100  Level Aus ATC (RADAR)
06:29AM -33.8379 115.6691 302° West 295 339 34,100  Level Aus ATC (RADAR)
06:30AM -33.8113 115.6192 303° West 295 339 34,100  Level Aus ATC (RADAR)
06:30AM -33.7843 115.5679 302° West 299 344 34,100  Level Aus ATC (RADAR)
06:31AM -33.7572 115.5181 303° West 300 345 34,100  Level Aus ATC (RADAR)
06:32AM -33.7270 115.4668 305° West 316 364 34,100  Level Aus ATC (RADAR)
06:32AM -33.6844 115.4336 327° Northwest 328 377 34,100  Level Aus ATC (RADAR)
06:33AM -33.5936 115.4241 355° North 340 391 34,100  Level Aus ATC (RADAR)
06:34AM -33.5336 115.4490 19° North 338 389 34,100  Level Aus ATC (RADAR)
06:34AM -33.4801 115.4657 15° North 341 392 34,100 -1,080 Level Aus ATC (RADAR)
06:35AM -33.4341 115.4798 14° North 342 394 33,000 -2,400 Descending Aus ATC (RADAR)
06:35AM -33.3806 115.4986 16° North 347 399 31,500 -2,820 Descending Aus ATC (RADAR)
06:36AM -33.3342 115.5151 17° North 344 396 30,000 -3,060 Descending Aus ATC (RADAR)
06:36AM -33.2803 115.5340 16° North 340 391 28,200 -2,880 Descending Aus ATC (RADAR)
06:37AM -33.2036 115.5565 14° North 339 390 26,000 -2,520 Descending Aus ATC (RADAR)
06:38AM -33.1597 115.5702 15° North 330 380 24,900 -2,220 Descending Aus ATC (RADAR)
06:38AM -33.1103 115.5852 14° North 319 367 23,600 -2,280 Descending Aus ATC (RADAR)
06:39AM -33.0633 115.6023 17° North 302 348 22,300 -2,220 Descending Aus ATC (RADAR)
06:40AM -33.0169 115.6161 14° North 290 334 21,100 -2,100 Descending Aus ATC (RADAR)
06:40AM -32.9719 115.6311 16° North 286 329 19,900 -2,040 Descending Aus ATC (RADAR)
06:41AM -32.9341 115.6433 15° North 281 323 18,900 -1,980 Descending Aus ATC (RADAR)
06:41AM -32.8906 115.6565 14° North 278 320 17,800 -1,980 Descending Aus ATC (RADAR)
06:42AM -32.8485 115.6710 16° North 273 314 16,600 -1,920 Descending Aus ATC (RADAR)
06:42AM -32.8023 115.6863 16° North 256 295 15,400 -1,800 Descending Aus ATC (RADAR)
06:43AM -32.7686 115.6973 15° North 249 287 14,500 -1,740 Descending Aus ATC (RADAR)
06:44AM -32.7245 115.7099 13° North 243 280 13,400 -1,680 Descending Aus ATC (RADAR)
06:44AM -32.6929 115.7209 16° North 238 274 12,600 -1,680 Descending Aus ATC (RADAR)
06:45AM -32.6564 115.7333 16° North 235 270 11,600 -1,740 Descending Aus ATC (RADAR)
06:45AM -32.6210 115.7457 16° North 230 265 10,600 -1,680 Descending Aus ATC (RADAR)
06:46AM -32.5911 115.7544 14° North 218 251 9,800 -1,680 Descending Aus ATC (RADAR)
06:46AM -32.5561 115.7619 10° North 216 249 8,800 -1,680 Descending Aus ATC (RADAR)
06:47AM -32.5171 115.7722 13° North 216 249 7,700 -1,620 Descending Aus ATC (RADAR)
06:48AM -32.4827 115.7832 15° North 221 254 6,800 -1,560 Descending Aus ATC (RADAR)
06:48AM -32.4461 115.7919 11° North 231 266 5,900 -1,560 Descending Aus ATC (RADAR)
06:49AM -32.4094 115.8026 14° North 232 267 5,000 -1,380 Descending Aus ATC (RADAR)
06:50AM -32.3429 115.8214 13° North 220 253 3,700 -1,200 Descending Aus ATC (RADAR)
06:50AM -32.3089 115.8305 13° North 213 245 3,100 -1,020 Descending Aus ATC (RADAR)
06:51AM -32.2800 115.8381 13° North 213 245 2,600 -1,020 Descending Aus ATC (RADAR)
06:52AM -32.2471 115.8474 13° North 210 242 2,000 -600 Descending Aus ATC (RADAR)
06:52AM -32.2069 115.8587 13° North 193 222 1,800 -180 Descending Aus ATC (RADAR)
06:53AM -32.1641 115.8662 North 144 166 1,700 -180 Descending Aus ATC (RADAR)
06:54AM -32.1405 115.8750 17° North 140 161 1,500 -360 Descending Aus ATC (RADAR)
06:55AM -32.1289 115.9017 63° Northeast 153 176 1,300 -480 Descending Aus ATC (RADAR)
06:55AM -32.1160 115.9286 60° Northeast 157 181 1,000 -360 Descending Aus ATC (RADAR)
06:56AM -32.0982 115.9357 19° North 134 154 900 -180 Descending Aus ATC (RADAR)
06:56AM -32.0827 115.9225 324° Northwest 113 130 800 -300 Descending Aus ATC (RADAR)
06:57AM -32.0814 115.9058 275° West 109 125 600 -600 Descending Aus ATC (RADAR)
06:58AM -32.0943 115.8837 236° Southwest 107 123 100 -720 Descending Aus ATC (RADAR)